Time,TemperatureF,DewpointF,PressureIn,WindDirection,WindDirectionDegrees,WindSpeedMPH,WindSpeedGustMPH,Humidity,HourlyPrecipIn,Conditions,Clouds,dailyrainin,SoftwareType,DateUTC
2013-04-17 00:01:00,51.4,48.0,29.94,North,6,0.0,2.0,88,0.00,,SCT060,0.00,VWS V14.01,2013-04-17 05:01:00,
2013-04-17 00:06:00,51.6,48.2,29.94,North,6,0.0,6.0,88,0.00,,SCT060,0.00,VWS V14.01,2013-04-17 05:06:00,
2013-04-17 00:11:00,51.6,48.2,29.94,NNE,13,1.0,6.0,88,0.00,,SCT060,0.00,VWS V14.01,2013-04-17 05:11:00,
2013-04-17 00:16:00,51.6,48.5,29.95,NNW,342,3.0,7.0,89,0.00,,SCT060,0.00,VWS V14.01,2013-04-17 05:16:00,
2013-04-17 00:21:00,51.7,48.0,29.95,North,359,5.0,8.0,87,0.00,,SCT060,0.00,VWS V14.01,2013-04-17 05:21:00,
2013-04-17 00:26:00,51.7,48.0,29.95,North,354,5.0,8.0,87,0.00,,SCT060,0.00,VWS V14.01,2013-04-17 05:26:00,
2013-04-17 00:31:00,51.7,48.6,29.95,North,7,5.0,8.0,89,0.00,,SCT060,0.00,VWS V14.01,2013-04-17 05:31:00,
2013-04-17 00:36:00,51.9,48.2,29.95,North,359,0.0,8.0,87,0.00,,SCT060,0.00,VWS V14.01,2013-04-17 05:36:00,
2013-04-17 00:41:00,51.9,47.8,29.95,NNW,333,5.0,8.0,86,0.00,,SCT060,0.00,VWS V14.01,2013-04-17 05:41:00,
2013-04-17 00:46:00,51.9,48.2,29.95,NNW,346,0.0,8.0,87,0.00,,SCT060,0.00,VWS V14.01,2013-04-17 05:46:00,
2013-04-17 00:51:00,51.9,48.2,29.95,North,354,2.0,8.0,87,0.00,,SCT060,0.00,VWS V14.01,2013-04-17 05:51:00,
2013-04-17 00:56:00,51.9,48.2,29.95,NNE,18,1.0,8.0,87,0.00,,SCT060,0.00,VWS V14.01,2013-04-17 05:56:00,
2013-04-17 01:01:00,51.9,48.2,29.95,North,352,0.0,2.0,87,0.00,,OVC060,0.00,VWS V14.01,2013-04-17 06:01:00,
2013-04-17 01:06:00,51.9,48.2,29.95,North,0,1.0,6.0,87,0.00,,OVC060,0.00,VWS V14.01,2013-04-17 06:06:00,
2013-04-17 01:11:00,51.9,47.8,29.95,North,0,0.0,7.0,86,0.00,,OVC060,0.00,VWS V14.01,2013-04-17 06:11:00,
2013-04-17 01:16:00,51.9,48.2,29.94,North,354,3.0,7.0,87,0.00,,OVC060,0.00,VWS V14.01,2013-04-17 06:16:00,
2013-04-17 01:21:00,51.9,48.2,29.94,North,354,0.0,7.0,87,0.00,,OVC060,0.00,VWS V14.01,2013-04-17 06:21:00,
2013-04-17 01:27:00,52.0,48.0,29.94,North,359,6.0,7.0,86,0.00,,OVC060,0.00,VWS V14.01,2013-04-17 06:27:00,
2013-04-17 01:32:00,52.0,48.3,29.95,North,357,0.0,7.0,87,0.00,,OVC060,0.00,VWS V14.01,2013-04-17 06:32:00,
2013-04-17 01:37:00,52.2,48.5,29.95,North,357,5.0,7.0,87,0.00,,OVC060,0.00,VWS V14.01,2013-04-17 06:37:00,
2013-04-17 01:42:00,52.2,48.5,29.95,North,354,2.0,7.0,87,0.00,,OVC060,0.00,VWS V14.01,2013-04-17 06:42:00,
2013-04-17 01:47:00,52.2,48.5,29.94,North,352,0.0,7.0,87,0.00,,OVC060,0.00,VWS V14.01,2013-04-17 06:47:00,
2013-04-17 01:52:00,52.0,48.3,29.94,North,359,1.0,7.0,87,0.00,,OVC060,0.00,VWS V14.01,2013-04-17 06:52:00,
2013-04-17 01:57:00,52.2,48.5,29.94,North,352,1.0,7.0,87,0.00,,OVC060,0.00,VWS V14.01,2013-04-17 06:57:00,
2013-04-17 02:02:00,52.0,48.3,29.94,North,349,0.0,2.0,87,0.00,,OVC055,0.00,VWS V14.01,2013-04-17 07:02:00,
2013-04-17 02:07:00,52.0,48.3,29.94,North,352,1.0,3.0,87,0.00,,OVC055,0.00,VWS V14.01,2013-04-17 07:07:00,
2013-04-17 02:12:00,52.2,48.5,29.94,North,350,2.0,3.0,87,0.00,,OVC055,0.00,VWS V14.01,2013-04-17 07:12:00,
2013-04-17 02:17:00,52.2,48.5,29.93,North,350,0.0,3.0,87,0.00,,OVC055,0.00,VWS V14.01,2013-04-17 07:17:00,
2013-04-17 02:22:00,52.3,48.5,29.93,North,352,2.0,5.0,87,0.00,,OVC055,0.00,VWS V14.01,2013-04-17 07:22:00,
2013-04-17 02:27:00,52.2,48.5,29.93,North,350,0.0,5.0,87,0.00,,OVC055,0.00,VWS V14.01,2013-04-17 07:27:00,
2013-04-17 02:33:00,52.3,48.9,29.93,North,3,1.0,5.0,88,0.00,,OVC055,0.00,VWS V14.01,2013-04-17 07:33:00,
2013-04-17 02:38:00,52.3,48.9,29.93,North,354,0.0,5.0,88,0.00,,OVC055,0.00,VWS V14.01,2013-04-17 07:38:00,
2013-04-17 02:43:00,52.3,48.9,29.93,North,359,1.0,5.0,88,0.00,,OVC055,0.00,VWS V14.01,2013-04-17 07:43:00,
2013-04-17 02:48:00,52.3,48.9,29.93,North,0,0.0,5.0,88,0.00,,OVC055,0.00,VWS V14.01,2013-04-17 07:48:00,
2013-04-17 02:53:00,52.3,48.9,29.93,North,359,2.0,5.0,88,0.00,,OVC055,0.00,VWS V14.01,2013-04-17 07:53:00,
2013-04-17 02:58:00,52.5,49.0,29.93,North,354,2.0,5.0,88,0.00,,OVC055,0.00,VWS V14.01,2013-04-17 07:58:00,
2013-04-17 03:03:00,52.5,49.0,29.92,North,357,2.0,5.0,88,0.00,,BKN050,0.00,VWS V14.01,2013-04-17 08:03:00,
2013-04-17 03:08:00,52.5,49.0,29.92,North,353,1.0,5.0,88,0.00,,BKN050,0.00,VWS V14.01,2013-04-17 08:08:00,
2013-04-17 03:13:00,52.5,49.0,29.92,North,353,0.0,5.0,88,0.00,,BKN050,0.00,VWS V14.01,2013-04-17 08:13:00,
2013-04-17 03:18:00,52.5,49.0,29.92,North,350,1.0,5.0,88,0.00,,BKN050,0.00,VWS V14.01,2013-04-17 08:18:00,
2013-04-17 03:23:00,52.5,49.0,29.92,North,352,0.0,5.0,88,0.00,,BKN050,0.00,VWS V14.01,2013-04-17 08:23:00,
2013-04-17 03:28:00,52.3,48.9,29.92,North,359,0.0,5.0,88,0.00,,BKN050,0.00,VWS V14.01,2013-04-17 08:28:00,
2013-04-17 03:33:00,52.3,48.9,29.91,North,359,0.0,5.0,88,0.00,,BKN050,0.00,VWS V14.01,2013-04-17 08:33:00,
2013-04-17 03:38:00,52.2,48.8,29.91,North,356,0.0,5.0,88,0.00,,BKN050,0.00,VWS V14.01,2013-04-17 08:38:00,
2013-04-17 03:44:00,52.2,49.1,29.91,North,359,5.0,6.0,89,0.00,,BKN050,0.00,VWS V14.01,2013-04-17 08:44:00,
2013-04-17 03:49:00,52.0,48.9,29.91,North,7,0.0,6.0,89,0.00,,BKN050,0.00,VWS V14.01,2013-04-17 08:49:00,
2013-04-17 03:54:00,52.0,49.2,29.91,North,8,5.0,6.0,90,0.00,,BKN050,0.00,VWS V14.01,2013-04-17 08:54:00,
2013-04-17 03:59:00,52.0,48.9,29.91,NNE,24,3.0,6.0,89,0.00,,BKN050,0.00,VWS V14.01,2013-04-17 08:59:00,
2013-04-17 04:04:00,52.0,49.2,29.91,NE,34,0.0,10.0,90,0.00,,FEW030,0.00,VWS V14.01,2013-04-17 09:04:00,
2013-04-17 04:09:00,52.0,49.2,29.91,NNE,20,0.0,10.0,90,0.00,,FEW030,0.00,VWS V14.01,2013-04-17 09:09:00,
2013-04-17 04:14:00,52.0,49.2,29.91,NNE,20,0.0,10.0,90,0.00,,FEW030,0.00,VWS V14.01,2013-04-17 09:14:00,
2013-04-17 04:19:00,52.0,49.2,29.91,NNE,20,0.0,10.0,90,0.00,,FEW030,0.00,VWS V14.01,2013-04-17 09:19:00,
2013-04-17 04:24:00,52.0,49.2,29.91,NNE,17,0.0,10.0,90,0.00,,FEW030,0.00,VWS V14.01,2013-04-17 09:24:00,
2013-04-17 04:29:00,52.2,49.7,29.91,North,3,0.0,10.0,91,0.00,,FEW030,0.00,VWS V14.01,2013-04-17 09:29:00,
2013-04-17 04:34:00,52.3,49.8,29.91,NNE,20,1.0,10.0,91,0.00,,FEW030,0.00,VWS V14.01,2013-04-17 09:34:00,
2013-04-17 04:39:00,52.5,50.0,29.91,NNE,20,0.0,10.0,91,0.00,,FEW030,0.00,VWS V14.01,2013-04-17 09:39:00,
2013-04-17 04:44:00,52.5,50.2,29.90,NE,34,2.0,10.0,92,0.00,,FEW030,0.00,VWS V14.01,2013-04-17 09:44:00,
2013-04-17 04:50:00,52.5,49.7,29.90,NE,55,0.0,10.0,90,0.00,,FEW030,0.00,VWS V14.01,2013-04-17 09:50:00,
2013-04-17 04:55:00,52.6,49.8,29.90,NE,56,0.0,10.0,90,0.00,,FEW030,0.00,VWS V14.01,2013-04-17 09:55:00,
2013-04-17 05:00:00,52.6,49.8,29.90,NE,55,0.0,10.0,90,0.00,,FEW030,0.00,VWS V14.01,2013-04-17 10:00:00,
2013-04-17 05:05:00,52.8,50.0,29.90,NE,55,0.0,0.0,90,0.00,,OVC024,0.00,VWS V14.01,2013-04-17 10:05:00,
2013-04-17 05:10:00,52.9,50.3,29.90,NE,55,0.0,0.0,91,0.00,,OVC024,0.00,VWS V14.01,2013-04-17 10:10:00,
2013-04-17 05:15:00,52.9,50.3,29.90,NE,55,0.0,0.0,91,0.00,,OVC024,0.00,VWS V14.01,2013-04-17 10:15:00,
2013-04-17 05:20:00,53.1,50.5,29.90,NE,55,0.0,0.0,91,0.00,,OVC024,0.00,VWS V14.01,2013-04-17 10:20:00,
2013-04-17 05:25:00,53.1,50.5,29.90,NE,55,0.0,0.0,91,0.00,,OVC024,0.00,VWS V14.01,2013-04-17 10:25:00,
2013-04-17 05:30:00,53.1,50.2,29.89,NE,55,0.0,0.0,90,0.00,,OVC024,0.00,VWS V14.01,2013-04-17 10:30:00,
2013-04-17 05:35:00,53.1,50.2,29.89,ENE,58,0.0,3.0,90,0.00,,OVC024,0.00,VWS V14.01,2013-04-17 10:35:00,
2013-04-17 05:40:00,52.9,50.0,29.89,East,80,3.0,6.0,90,0.00,,OVC024,0.00,VWS V14.01,2013-04-17 10:40:00,
2013-04-17 05:45:00,52.9,50.0,29.88,ENE,76,3.0,6.0,90,0.00,,OVC024,0.00,VWS V14.01,2013-04-17 10:45:00,
2013-04-17 05:51:00,53.1,50.5,29.88,ESE,120,2.0,6.0,91,0.00,,OVC024,0.00,VWS V14.01,2013-04-17 10:51:00,
2013-04-17 05:56:00,53.5,51.5,29.88,ESE,113,0.0,6.0,93,0.00,,OVC024,0.00,VWS V14.01,2013-04-17 10:56:00,
2013-04-17 06:01:00,54.4,53.0,29.87,ESE,113,0.0,0.0,95,0.00,,BKN027,0.00,VWS V14.01,2013-04-17 11:01:00,
2013-04-17 06:06:00,54.8,53.4,29.87,ESE,112,0.0,2.0,95,0.00,,BKN027,0.00,VWS V14.01,2013-04-17 11:06:00,
2013-04-17 06:11:00,55.3,54.2,29.87,ESE,119,0.0,5.0,96,0.00,,BKN027,0.00,VWS V14.01,2013-04-17 11:11:00,
2013-04-17 06:16:00,55.6,54.2,29.86,East,92,2.0,5.0,95,0.00,,BKN027,0.00,VWS V14.01,2013-04-17 11:16:00,
2013-04-17 06:21:00,56.3,55.5,29.86,ESE,102,2.0,5.0,97,0.00,,BKN027,0.00,VWS V14.01,2013-04-17 11:21:00,
2013-04-17 06:26:00,57.2,55.8,29.86,ESE,114,2.0,6.0,95,0.00,,BKN027,0.00,VWS V14.01,2013-04-17 11:26:00,
2013-04-17 06:31:00,58.4,57.3,29.85,ESE,106,5.0,7.0,96,0.00,,BKN027,0.00,VWS V14.01,2013-04-17 11:31:00,
2013-04-17 06:36:00,59.8,58.4,29.85,East,83,5.0,8.0,95,0.00,,BKN027,0.00,VWS V14.01,2013-04-17 11:36:00,
2013-04-17 06:41:00,60.5,59.4,29.85,SSE,168,5.0,8.0,96,0.00,,BKN027,0.00,VWS V14.01,2013-04-17 11:41:00,
2013-04-17 06:47:00,61.0,59.6,29.85,SE,124,0.0,8.0,95,0.00,,BKN027,0.00,VWS V14.01,2013-04-17 11:47:00,
2013-04-17 06:52:00,61.0,58.7,29.85,ESE,102,0.0,8.0,92,0.00,,BKN027,0.00,VWS V14.01,2013-04-17 11:52:00,
2013-04-17 06:57:00,60.9,58.6,29.85,East,100,2.0,8.0,92,0.00,,BKN027,0.00,VWS V14.01,2013-04-17 11:57:00,
2013-04-17 07:02:00,61.0,59.0,29.85,ESE,106,2.0,5.0,93,0.00,,OVC026,0.00,VWS V14.01,2013-04-17 12:02:00,
2013-04-17 07:07:00,61.6,59.6,29.85,ESE,112,0.0,7.0,93,0.00,,OVC026,0.00,VWS V14.01,2013-04-17 12:07:00,
2013-04-17 07:12:00,62.4,60.7,29.85,South,184,0.0,10.0,94,0.00,,OVC026,0.00,VWS V14.01,2013-04-17 12:12:00,
2013-04-17 07:17:00,62.6,60.5,29.85,ESE,113,3.0,10.0,93,0.00,,OVC026,0.00,VWS V14.01,2013-04-17 12:17:00,
2013-04-17 07:22:00,63.2,61.5,29.85,SE,126,5.0,10.0,94,0.00,,OVC026,0.00,VWS V14.01,2013-04-17 12:22:00,
2013-04-17 07:28:00,64.3,62.5,29.85,ENE,58,5.0,10.0,94,0.00,,OVC026,0.00,VWS V14.01,2013-04-17 12:28:00,
2013-04-17 07:33:00,65.8,64.3,29.85,SSE,162,0.0,10.0,95,0.00,,OVC026,0.00,VWS V14.01,2013-04-17 12:33:00,
2013-04-17 07:38:00,66.6,64.5,29.85,East,95,0.0,10.0,93,0.00,,OVC026,0.00,VWS V14.01,2013-04-17 12:38:00,
2013-04-17 07:43:00,67.1,64.4,29.85,NNE,32,2.0,10.0,91,0.00,,OVC026,0.00,VWS V14.01,2013-04-17 12:43:00,
2013-04-17 07:48:00,67.6,64.6,29.86,ESE,110,2.0,10.0,90,0.00,,OVC026,0.00,VWS V14.01,2013-04-17 12:48:00,
2013-04-17 07:53:00,67.8,65.1,29.86,East,96,2.0,14.0,91,0.00,,OVC026,0.00,VWS V14.01,2013-04-17 12:53:00,
2013-04-17 07:58:00,68.1,64.7,29.86,East,93,3.0,14.0,89,0.00,,OVC026,0.00,VWS V14.01,2013-04-17 12:58:00,
2013-04-17 08:03:00,68.3,65.6,29.86,SSE,161,2.0,10.0,91,0.00,,,0.00,VWS V14.01,2013-04-17 13:03:00,
2013-04-17 08:08:00,68.4,65.4,29.86,NE,44,2.0,14.0,90,0.00,,,0.00,VWS V14.01,2013-04-17 13:08:00,
2013-04-17 08:14:00,68.4,66.0,29.86,SE,126,5.0,14.0,92,0.00,,,0.00,VWS V14.01,2013-04-17 13:14:00,
2013-04-17 08:19:00,68.4,66.0,29.86,South,182,3.0,14.0,92,0.00,,,0.00,VWS V14.01,2013-04-17 13:19:00,
2013-04-17 08:24:00,68.3,66.5,29.86,SSE,152,2.0,14.0,94,0.00,,,0.00,VWS V14.01,2013-04-17 13:24:00,
2013-04-17 08:29:00,68.3,66.5,29.86,SE,134,2.0,14.0,94,0.00,,,0.00,VWS V14.01,2013-04-17 13:29:00,
2013-04-17 08:34:00,68.3,66.8,29.86,ENE,61,1.0,14.0,95,0.00,,,0.00,VWS V14.01,2013-04-17 13:34:00,
2013-04-17 08:39:00,68.4,67.2,29.86,SSE,147,2.0,14.0,96,0.00,,,0.00,VWS V14.01,2013-04-17 13:39:00,
2013-04-17 08:44:00,68.4,66.9,29.86,South,179,2.0,14.0,95,0.00,,,0.00,VWS V14.01,2013-04-17 13:44:00,
2013-04-17 08:49:00,68.8,67.3,29.86,SE,140,5.0,14.0,95,0.00,,,0.00,VWS V14.01,2013-04-17 13:49:00,
2013-04-17 08:54:00,69.1,67.9,29.86,South,171,5.0,14.0,96,0.00,,,0.00,VWS V14.01,2013-04-17 13:54:00,
2013-04-17 08:59:00,69.4,67.9,29.85,ENE,73,0.0,14.0,95,0.00,,,0.00,VWS V14.01,2013-04-17 13:59:00,
2013-04-17 09:05:00,69.6,67.8,29.85,SSE,160,2.0,10.0,94,0.00,,,0.00,VWS V14.01,2013-04-17 14:05:00,
2013-04-17 09:10:00,69.8,68.3,29.85,ESE,116,2.0,10.0,95,0.00,,,0.00,VWS V14.01,2013-04-17 14:10:00,
2013-04-17 09:15:00,69.9,68.4,29.85,South,171,5.0,10.0,95,0.00,,,0.00,VWS V14.01,2013-04-17 14:15:00,
2013-04-17 09:20:00,70.3,69.1,29.85,ENE,71,0.0,12.0,96,0.00,,,0.00,VWS V14.01,2013-04-17 14:20:00,
2013-04-17 09:25:00,70.9,69.4,29.85,South,191,2.0,14.0,95,0.00,,,0.00,VWS V14.01,2013-04-17 14:25:00,
2013-04-17 09:30:00,72.0,69.9,29.84,NE,42,1.0,14.0,93,0.00,,,0.00,VWS V14.01,2013-04-17 14:30:00,
2013-04-17 09:35:00,72.7,69.6,29.84,South,174,2.0,14.0,90,0.00,,,0.00,VWS V14.01,2013-04-17 14:35:00,
2013-04-17 09:40:00,73.2,69.8,29.84,South,188,12.0,19.0,89,0.00,,,0.00,VWS V14.01,2013-04-17 14:40:00,
2013-04-17 09:45:00,73.7,70.3,29.84,NE,52,5.0,19.0,89,0.00,,,0.00,VWS V14.01,2013-04-17 14:45:00,
2013-04-17 09:51:00,73.7,70.3,29.84,WSW,239,6.0,19.0,89,0.00,,,0.00,VWS V14.01,2013-04-17 14:51:00,
2013-04-17 09:57:00,73.7,69.6,29.84,SW,222,5.0,19.0,87,0.00,,,0.00,VWS V14.01,2013-04-17 14:57:00,
2013-04-17 10:02:00,73.5,69.4,29.84,SSE,158,5.0,11.0,87,0.00,,,0.00,VWS V14.01,2013-04-17 15:02:00,
2013-04-17 10:07:00,73.5,69.4,29.84,SSE,160,14.0,14.0,87,0.00,,,0.00,VWS V14.01,2013-04-17 15:07:00,
2013-04-17 10:12:00,73.5,69.1,29.84,South,189,7.0,14.0,86,0.00,,,0.00,VWS V14.01,2013-04-17 15:12:00,
2013-04-17 10:17:00,73.7,68.9,29.84,SW,234,7.0,14.0,85,0.00,,,0.00,VWS V14.01,2013-04-17 15:17:00,
2013-04-17 10:22:00,73.9,69.4,29.84,East,86,8.0,14.0,86,0.00,,,0.00,VWS V14.01,2013-04-17 15:22:00,
2013-04-17 10:27:00,73.7,68.9,29.84,WSW,239,5.0,14.0,85,0.00,,,0.00,VWS V14.01,2013-04-17 15:27:00,
2013-04-17 10:32:00,73.7,69.3,29.84,NNE,30,2.0,14.0,86,0.00,,,0.00,VWS V14.01,2013-04-17 15:32:00,
2013-04-17 10:37:00,73.7,69.3,29.84,SSE,150,3.0,14.0,86,0.00,,,0.00,VWS V14.01,2013-04-17 15:37:00,
2013-04-17 10:42:00,73.5,68.7,29.84,East,85,5.0,14.0,85,0.00,,,0.00,VWS V14.01,2013-04-17 15:42:00,
2013-04-17 10:47:00,73.5,68.7,29.84,NE,51,5.0,17.0,85,0.00,,,0.00,VWS V14.01,2013-04-17 15:47:00,
2013-04-17 10:52:00,73.5,68.7,29.84,East,96,2.0,17.0,85,0.00,,,0.00,VWS V14.01,2013-04-17 15:52:00,
2013-04-17 10:58:00,73.5,68.7,29.84,SE,141,0.0,17.0,85,0.00,,,0.00,VWS V14.01,2013-04-17 15:58:00,
2013-04-17 11:03:00,73.5,68.7,29.84,SSE,167,3.0,11.0,85,0.00,,OVC027,0.00,VWS V14.01,2013-04-17 16:03:00,
2013-04-17 11:08:00,73.7,68.9,29.84,South,182,10.0,13.0,85,0.00,,OVC027,0.00,VWS V14.01,2013-04-17 16:08:00,
2013-04-17 11:13:00,73.9,68.8,29.84,SSE,154,2.0,13.0,84,0.00,,OVC027,0.00,VWS V14.01,2013-04-17 16:13:00,
2013-04-17 11:18:00,74.0,68.9,29.84,South,181,5.0,13.0,84,0.00,,OVC027,0.00,VWS V14.01,2013-04-17 16:18:00,
2013-04-17 11:23:00,74.0,68.9,29.84,WNW,285,0.0,13.0,84,0.00,,OVC027,0.00,VWS V14.01,2013-04-17 16:23:00,
2013-04-17 11:28:00,74.7,68.5,29.84,WSW,258,2.0,13.0,81,0.00,,OVC027,0.00,VWS V14.01,2013-04-17 16:28:00,
2013-04-17 11:33:00,75.6,69.0,29.83,SE,133,3.0,13.0,80,0.00,,OVC027,0.00,VWS V14.01,2013-04-17 16:33:00,
2013-04-17 11:38:00,76.0,68.7,29.83,SE,134,11.0,13.0,78,0.00,,OVC027,0.00,VWS V14.01,2013-04-17 16:38:00,
2013-04-17 11:43:00,75.4,68.4,29.83,WSW,241,5.0,16.0,79,0.00,,OVC027,0.00,VWS V14.01,2013-04-17 16:43:00,
2013-04-17 11:48:00,74.9,67.9,29.83,NE,54,3.0,16.0,79,0.00,,OVC027,0.00,VWS V14.01,2013-04-17 16:48:00,
2013-04-17 11:53:00,74.9,67.6,29.83,NW,322,5.0,16.0,78,0.00,,OVC027,0.00,VWS V14.01,2013-04-17 16:53:00,
2013-04-17 11:58:00,74.9,67.9,29.83,SSE,148,5.0,16.0,79,0.00,,OVC027,0.00,VWS V14.01,2013-04-17 16:58:00,
2013-04-17 12:00:00,75.1,68.2,29.82,East,82,2.0,16.0,79,0.00,,OVC041CB,0.00,VWS V14.01,2013-04-17 17:00:00,
2013-04-17 12:03:00,74.9,67.9,29.82,South,175,0.0,7.0,79,0.00,,BKN042,0.00,VWS V14.01,2013-04-17 17:03:00,
2013-04-17 12:09:00,75.3,67.6,29.82,East,92,3.0,8.0,77,0.00,,BKN042,0.00,VWS V14.01,2013-04-17 17:09:00,
2013-04-17 12:14:00,75.4,67.7,29.82,ESE,112,10.0,12.0,77,0.00,,BKN042,0.00,VWS V14.01,2013-04-17 17:14:00,
2013-04-17 12:19:00,76.1,67.6,29.80,NNE,14,2.0,14.0,75,0.00,,BKN042,0.00,VWS V14.01,2013-04-17 17:19:00,
2013-04-17 12:24:00,76.5,67.6,29.80,West,278,5.0,16.0,74,0.00,,BKN042,0.00,VWS V14.01,2013-04-17 17:24:00,
2013-04-17 12:29:00,76.8,66.7,29.80,ESE,107,10.0,16.0,71,0.00,,BKN042,0.00,VWS V14.01,2013-04-17 17:29:00,
2013-04-17 12:34:00,77.4,66.9,29.80,South,189,7.0,17.0,70,0.00,,BKN042,0.00,VWS V14.01,2013-04-17 17:34:00,
2013-04-17 12:39:00,77.4,66.9,29.80,South,178,7.0,17.0,70,0.00,,BKN042,0.00,VWS V14.01,2013-04-17 17:39:00,
2013-04-17 12:44:00,77.4,66.9,29.80,SSE,151,3.0,17.0,70,0.00,,BKN042,0.00,VWS V14.01,2013-04-17 17:44:00,
2013-04-17 12:49:00,76.8,66.7,29.79,SW,234,7.0,17.0,71,0.00,,BKN042,0.00,VWS V14.01,2013-04-17 17:49:00,
2013-04-17 12:54:00,76.7,66.6,29.79,SE,128,5.0,17.0,71,0.00,,BKN042,0.00,VWS V14.01,2013-04-17 17:54:00,
2013-04-17 12:59:00,76.7,66.2,29.79,ENE,65,0.0,17.0,70,0.00,,BKN042,0.00,VWS V14.01,2013-04-17 17:59:00,
2013-04-17 13:04:00,76.7,66.6,29.79,SSE,151,8.0,10.0,71,0.00,,OVC055,0.00,VWS V14.01,2013-04-17 18:04:00,
2013-04-17 13:09:00,76.8,67.5,29.79,SSW,198,8.0,10.0,73,0.00,,OVC055,0.00,VWS V14.01,2013-04-17 18:09:00,
2013-04-17 13:14:00,77.0,65.2,29.78,SE,137,7.0,16.0,67,0.00,,OVC055,0.00,VWS V14.01,2013-04-17 18:14:00,
2013-04-17 13:19:00,76.8,65.9,29.78,SSW,200,2.0,16.0,69,0.00,,OVC055,0.00,VWS V14.01,2013-04-17 18:19:00,
2013-04-17 13:25:00,77.2,66.2,29.78,SE,136,8.0,16.0,69,0.00,,OVC055,0.00,VWS V14.01,2013-04-17 18:25:00,
2013-04-17 13:30:00,77.4,66.4,29.77,SSE,151,10.0,16.0,69,0.00,,OVC055,0.00,VWS V14.01,2013-04-17 18:30:00,
2013-04-17 13:35:00,77.4,66.0,29.77,SW,232,7.0,16.0,68,0.00,,OVC055,0.00,VWS V14.01,2013-04-17 18:35:00,
2013-04-17 13:40:00,77.6,65.8,29.77,South,169,7.0,17.0,67,0.00,,OVC055,0.00,VWS V14.01,2013-04-17 18:40:00,
2013-04-17 13:45:00,77.7,65.0,29.77,SSE,157,8.0,17.0,65,0.00,,OVC055,0.00,VWS V14.01,2013-04-17 18:45:00,
2013-04-17 13:50:00,77.7,65.4,29.77,ESE,112,8.0,19.0,66,0.00,,OVC055,0.00,VWS V14.01,2013-04-17 18:50:00,
2013-04-17 13:56:00,77.6,65.8,29.77,SSE,155,10.0,19.0,67,0.00,,OVC055,0.00,VWS V14.01,2013-04-17 18:56:00,
2013-04-17 14:01:00,77.7,65.9,29.76,NE,54,0.0,5.0,67,0.00,,BKN060,0.00,VWS V14.01,2013-04-17 19:01:00,
2013-04-17 14:06:00,77.9,66.5,29.76,SSE,151,5.0,12.0,68,0.00,,BKN060,0.00,VWS V14.01,2013-04-17 19:06:00,
2013-04-17 14:11:00,78.3,65.6,29.76,South,185,7.0,14.0,65,0.00,,BKN060,0.00,VWS V14.01,2013-04-17 19:11:00,
2013-04-17 14:16:00,78.5,65.8,29.75,North,7,5.0,20.0,65,0.00,,BKN060,0.00,VWS V14.01,2013-04-17 19:16:00,
2013-04-17 14:21:00,78.8,66.1,29.75,SSW,206,2.0,22.0,65,0.00,,BKN060,0.00,VWS V14.01,2013-04-17 19:21:00,
2013-04-17 14:27:00,79.2,66.4,29.75,South,178,1.0,22.0,65,0.00,,BKN060,0.00,VWS V14.01,2013-04-17 19:27:00,
2013-04-17 14:32:00,79.0,65.8,29.74,North,353,2.0,22.0,64,0.00,,BKN060,0.00,VWS V14.01,2013-04-17 19:32:00,
2013-04-17 14:37:00,79.0,66.2,29.74,SSW,203,1.0,22.0,65,0.00,,BKN060,0.00,VWS V14.01,2013-04-17 19:37:00,
2013-04-17 14:42:00,79.6,66.4,29.74,ESE,112,3.0,22.0,64,0.00,,BKN060,0.00,VWS V14.01,2013-04-17 19:42:00,
2013-04-17 14:47:00,80.1,66.4,29.72,SSW,199,5.0,22.0,63,0.00,,BKN060,0.00,VWS V14.01,2013-04-17 19:47:00,
2013-04-17 14:52:00,80.5,66.8,29.72,SE,133,8.0,22.0,63,0.00,,BKN060,0.00,VWS V14.01,2013-04-17 19:52:00,
2013-04-17 14:57:00,80.5,66.3,29.72,WSW,258,2.0,22.0,62,0.00,,BKN060,0.00,VWS V14.01,2013-04-17 19:57:00,
2013-04-17 15:02:00,80.1,65.4,29.72,South,178,7.0,13.0,61,0.00,,BKN055,0.00,VWS V14.01,2013-04-17 20:02:00,
2013-04-17 15:07:00,79.6,66.4,29.72,SSE,158,10.0,14.0,64,0.00,,BKN055,0.00,VWS V14.01,2013-04-17 20:07:00,
2013-04-17 15:12:00,79.6,65.9,29.72,SW,215,6.0,14.0,63,0.00,,BKN055,0.00,VWS V14.01,2013-04-17 20:12:00,
2013-04-17 15:17:00,79.6,65.9,29.72,ENE,62,2.0,14.0,63,0.00,,BKN055,0.00,VWS V14.01,2013-04-17 20:17:00,
2013-04-17 15:23:00,79.8,66.6,29.72,NE,47,2.0,14.0,64,0.00,,BKN055,0.00,VWS V14.01,2013-04-17 20:23:00,
2013-04-17 15:28:00,79.9,65.3,29.72,NE,45,6.0,14.0,61,0.00,,BKN055,0.00,VWS V14.01,2013-04-17 20:28:00,
2013-04-17 15:33:00,80.1,65.9,29.70,East,79,3.0,16.0,62,0.00,,BKN055,0.00,VWS V14.01,2013-04-17 20:33:00,
2013-04-17 15:38:00,80.1,65.4,29.70,ESE,106,2.0,17.0,61,0.00,,BKN055,0.00,VWS V14.01,2013-04-17 20:38:00,
2013-04-17 15:43:00,80.3,66.6,29.70,SE,143,5.0,17.0,63,0.00,,BKN055,0.00,VWS V14.01,2013-04-17 20:43:00,
2013-04-17 15:48:00,80.3,65.6,29.69,SSW,199,5.0,18.0,61,0.00,,BKN055,0.00,VWS V14.01,2013-04-17 20:48:00,
2013-04-17 15:53:00,80.3,65.6,29.69,SW,222,10.0,18.0,61,0.00,,BKN055,0.00,VWS V14.01,2013-04-17 20:53:00,
2013-04-17 15:58:00,80.5,66.3,29.69,North,3,3.0,19.0,62,0.00,,BKN055,0.00,VWS V14.01,2013-04-17 20:58:00,
2013-04-17 16:03:00,80.7,65.1,29.69,East,99,6.0,14.0,59,0.00,,OVC075,0.00,VWS V14.01,2013-04-17 21:03:00,
2013-04-17 16:08:00,80.5,65.8,29.69,SE,141,7.0,20.0,61,0.00,,OVC075,0.00,VWS V14.01,2013-04-17 21:08:00,
2013-04-17 16:14:00,80.7,66.0,29.69,SSE,147,7.0,20.0,61,0.00,,OVC075,0.00,VWS V14.01,2013-04-17 21:14:00,
2013-04-17 16:19:00,81.2,66.5,29.68,ENE,62,2.0,20.0,61,0.00,,OVC075,0.00,VWS V14.01,2013-04-17 21:19:00,
2013-04-17 16:24:00,81.2,66.5,29.68,SW,224,7.0,20.0,61,0.00,,OVC075,0.00,VWS V14.01,2013-04-17 21:24:00,
2013-04-17 16:29:00,81.2,66.0,29.68,SSW,196,11.0,20.0,60,0.00,,OVC075,0.00,VWS V14.01,2013-04-17 21:29:00,
2013-04-17 16:34:00,81.2,65.5,29.67,NNE,24,5.0,20.0,59,0.00,,OVC075,0.00,VWS V14.01,2013-04-17 21:34:00,
2013-04-17 16:39:00,81.1,66.4,29.67,SSE,148,2.0,20.0,61,0.00,,OVC075,0.00,VWS V14.01,2013-04-17 21:39:00,
2013-04-17 16:44:00,80.7,65.1,29.67,SW,222,7.0,20.0,59,0.00,,OVC075,0.00,VWS V14.01,2013-04-17 21:44:00,
2013-04-17 16:49:00,80.7,65.1,29.67,North,0,2.0,20.0,59,0.00,,OVC075,0.00,VWS V14.01,2013-04-17 21:49:00,
2013-04-17 16:54:00,80.7,65.5,29.67,East,100,2.0,20.0,60,0.00,,OVC075,0.00,VWS V14.01,2013-04-17 21:54:00,
2013-04-17 17:00:00,80.5,65.3,29.67,NNW,336,5.0,20.0,60,0.00,,OVC075,0.00,VWS V14.01,2013-04-17 22:00:00,
2013-04-17 17:05:00,80.3,65.2,29.67,West,275,2.0,12.0,60,0.00,,BKN075,0.00,VWS V14.01,2013-04-17 22:05:00,
2013-04-17 17:10:00,80.1,65.4,29.67,North,1,1.0,14.0,61,0.00,,BKN075,0.00,VWS V14.01,2013-04-17 22:10:00,
2013-04-17 17:15:00,80.1,65.0,29.67,South,172,3.0,14.0,60,0.00,,BKN075,0.00,VWS V14.01,2013-04-17 22:15:00,
2013-04-17 17:20:00,80.1,65.4,29.67,WSW,258,0.0,14.0,61,0.00,,BKN075,0.00,VWS V14.01,2013-04-17 22:20:00,
2013-04-17 17:25:00,79.9,64.8,29.67,WSW,247,10.0,14.0,60,0.00,,BKN075,0.00,VWS V14.01,2013-04-17 22:25:00,
2013-04-17 17:30:00,79.9,65.3,29.67,SSW,196,3.0,14.0,61,0.00,,BKN075,0.00,VWS V14.01,2013-04-17 22:30:00,
2013-04-17 17:35:00,79.8,65.2,29.67,SSW,205,5.0,14.0,61,0.00,,BKN075,0.00,VWS V14.01,2013-04-17 22:35:00,
2013-04-17 17:40:00,79.6,64.5,29.67,East,95,0.0,14.0,60,0.00,,BKN075,0.00,VWS V14.01,2013-04-17 22:40:00,
2013-04-17 17:45:00,79.6,65.0,29.66,SSW,199,3.0,14.0,61,0.00,,BKN075,0.00,VWS V14.01,2013-04-17 22:45:00,
2013-04-17 17:50:00,79.4,64.8,29.66,SE,133,3.0,14.0,61,0.00,,BKN075,0.00,VWS V14.01,2013-04-17 22:50:00,
2013-04-17 17:56:00,79.4,64.8,29.66,SSE,158,3.0,14.0,61,0.00,,BKN075,0.00,VWS V14.01,2013-04-17 22:56:00,
2013-04-17 18:01:00,79.4,64.8,29.66,South,169,5.0,21.0,61,0.00,,OVC090,0.00,VWS V14.01,2013-04-17 23:01:00,
2013-04-17 18:06:00,79.2,65.5,29.66,East,96,2.0,21.0,63,0.00,,OVC090,0.00,VWS V14.01,2013-04-17 23:06:00,
2013-04-17 18:11:00,79.2,65.1,29.66,SSW,200,1.0,21.0,62,0.00,,OVC090,0.00,VWS V14.01,2013-04-17 23:11:00,
2013-04-17 18:16:00,79.0,64.9,29.65,SSW,208,5.0,21.0,62,0.00,,OVC090,0.00,VWS V14.01,2013-04-17 23:16:00,
2013-04-17 18:21:00,79.0,64.4,29.65,NE,44,2.0,21.0,61,0.00,,OVC090,0.00,VWS V14.01,2013-04-17 23:21:00,
2013-04-17 18:26:00,78.8,64.7,29.65,SSW,213,5.0,21.0,62,0.00,,OVC090,0.00,VWS V14.01,2013-04-17 23:26:00,
2013-04-17 18:31:00,78.8,64.2,29.65,East,83,3.0,21.0,61,0.00,,OVC090,0.00,VWS V14.01,2013-04-17 23:31:00,
2013-04-17 18:37:00,78.8,64.7,29.65,NE,35,3.0,21.0,62,0.00,,OVC090,0.00,VWS V14.01,2013-04-17 23:37:00,
2013-04-17 18:42:00,78.6,65.0,29.65,ESE,102,2.0,21.0,63,0.00,,OVC090,0.00,VWS V14.01,2013-04-17 23:42:00,
2013-04-17 18:47:00,78.6,64.5,29.65,East,99,3.0,21.0,62,0.00,,OVC090,0.00,VWS V14.01,2013-04-17 23:47:00,
2013-04-17 18:52:00,78.5,64.4,29.65,SSE,154,7.0,21.0,62,0.00,,OVC090,0.00,VWS V14.01,2013-04-17 23:52:00,
2013-04-17 18:57:00,78.5,64.9,29.65,SSW,213,1.0,21.0,63,0.00,,OVC090,0.00,VWS V14.01,2013-04-17 23:57:00,
2013-04-17 19:02:00,78.3,64.7,29.63,South,171,2.0,5.0,63,0.00,,OVC100,0.00,VWS V14.01,2013-04-18 00:02:00,
2013-04-17 19:07:00,78.3,64.7,29.63,SE,138,8.0,10.0,63,0.00,,OVC100,0.00,VWS V14.01,2013-04-18 00:07:00,
2013-04-17 19:12:00,78.3,64.2,29.63,East,99,2.0,10.0,62,0.00,,OVC100,0.00,VWS V14.01,2013-04-18 00:12:00,
2013-04-17 19:17:00,78.3,64.2,29.62,SSW,192,1.0,10.0,62,0.00,,OVC100,0.00,VWS V14.01,2013-04-18 00:17:00,
2013-04-17 19:22:00,78.1,64.5,29.62,ESE,106,2.0,10.0,63,0.00,,OVC100,0.00,VWS V14.01,2013-04-18 00:22:00,
2013-04-17 19:27:00,78.1,64.9,29.62,North,349,2.0,10.0,64,0.00,,OVC100,0.00,VWS V14.01,2013-04-18 00:27:00,
2013-04-17 19:32:00,77.9,64.3,29.62,East,93,5.0,12.0,63,0.00,,OVC100,0.00,VWS V14.01,2013-04-18 00:32:00,
2013-04-17 19:37:00,77.9,64.3,29.62,East,93,2.0,12.0,63,0.00,,OVC100,0.00,VWS V14.01,2013-04-18 00:37:00,
2013-04-17 19:42:00,77.9,64.3,29.62,SSW,206,5.0,12.0,63,0.00,,OVC100,0.00,VWS V14.01,2013-04-18 00:42:00,
2013-04-17 19:47:00,77.6,64.5,29.61,SSW,209,3.0,12.0,64,0.00,,OVC100,0.00,VWS V14.01,2013-04-18 00:47:00,
2013-04-17 19:53:00,77.6,64.5,29.61,South,174,5.0,12.0,64,0.00,,OVC100,0.00,VWS V14.01,2013-04-18 00:53:00,
2013-04-17 19:58:00,77.6,64.5,29.61,NNW,332,2.0,12.0,64,0.00,,OVC100,0.00,VWS V14.01,2013-04-18 00:58:00,
2013-04-17 20:03:00,77.6,63.6,29.61,SE,128,2.0,13.0,62,0.00,,OVC120,0.00,VWS V14.01,2013-04-18 01:03:00,
2013-04-17 20:08:00,77.6,64.0,29.61,ENE,68,1.0,13.0,63,0.00,,OVC120,0.00,VWS V14.01,2013-04-18 01:08:00,
2013-04-17 20:13:00,77.6,64.0,29.61,SW,220,1.0,13.0,63,0.00,,OVC120,0.00,VWS V14.01,2013-04-18 01:13:00,
2013-04-17 20:18:00,77.6,63.6,29.60,NE,41,5.0,14.0,62,0.00,,OVC120,0.00,VWS V14.01,2013-04-18 01:18:00,
2013-04-17 20:23:00,77.7,63.7,29.60,WSW,258,0.0,14.0,62,0.00,,OVC120,0.00,VWS V14.01,2013-04-18 01:23:00,
2013-04-17 20:28:00,77.6,63.6,29.60,SE,134,8.0,14.0,62,0.00,,OVC120,0.00,VWS V14.01,2013-04-18 01:28:00,
2013-04-17 20:34:00,77.7,63.7,29.59,South,189,6.0,17.0,62,0.00,,OVC120,0.00,VWS V14.01,2013-04-18 01:34:00,
2013-04-17 20:39:00,77.7,63.7,29.59,North,353,5.0,17.0,62,0.00,,OVC120,0.00,VWS V14.01,2013-04-18 01:39:00,
2013-04-17 20:44:00,77.7,64.1,29.59,ESE,102,2.0,17.0,63,0.00,,OVC120,0.00,VWS V14.01,2013-04-18 01:44:00,
2013-04-17 20:49:00,77.7,64.1,29.60,NNE,27,2.0,19.0,63,0.00,,OVC120,0.00,VWS V14.01,2013-04-18 01:49:00,
2013-04-17 20:54:00,77.6,64.0,29.60,South,175,8.0,19.0,63,0.00,,OVC120,0.00,VWS V14.01,2013-04-18 01:54:00,
2013-04-17 20:59:00,77.2,64.5,29.60,North,6,2.0,19.0,65,0.00,,OVC120,0.00,VWS V14.01,2013-04-18 01:59:00,
2013-04-17 21:00:00,77.2,64.5,29.60,SSE,157,8.0,19.0,65,0.00,,OVC041CB,0.00,VWS V14.01,2013-04-18 02:00:00,
2013-04-17 21:04:00,76.8,64.6,29.60,SSE,148,1.0,10.0,66,0.00,,OVC100,0.00,VWS V14.01,2013-04-18 02:04:00,
2013-04-17 21:09:00,76.7,64.5,29.60,North,0,5.0,10.0,66,0.00,,OVC100,0.00,VWS V14.01,2013-04-18 02:09:00,
2013-04-17 21:14:00,76.5,64.3,29.59,South,172,2.0,10.0,66,0.00,,OVC100,0.00,VWS V14.01,2013-04-18 02:14:00,
2013-04-17 21:19:00,76.1,64.8,29.59,ESE,116,1.0,10.0,68,0.00,,OVC100,0.00,VWS V14.01,2013-04-18 02:19:00,
2013-04-17 21:24:00,76.0,65.5,29.59,ESE,123,2.0,10.0,70,0.00,,OVC100,0.00,VWS V14.01,2013-04-18 02:24:00,
2013-04-17 21:30:00,75.6,64.7,29.59,ESE,119,11.0,11.0,69,0.00,,OVC100,0.00,VWS V14.01,2013-04-18 02:30:00,
2013-04-17 21:35:00,75.8,64.9,29.59,South,178,2.0,11.0,69,0.00,,OVC100,0.00,VWS V14.01,2013-04-18 02:35:00,
2013-04-17 21:40:00,76.0,65.5,29.59,South,191,5.0,12.0,70,0.00,,OVC100,0.00,VWS V14.01,2013-04-18 02:40:00,
2013-04-17 21:45:00,76.0,64.7,29.58,North,0,3.0,12.0,68,0.00,,OVC100,0.00,VWS V14.01,2013-04-18 02:45:00,
2013-04-17 21:51:00,75.3,64.8,29.58,East,79,3.0,12.0,70,0.00,,OVC100,0.00,VWS V14.01,2013-04-18 02:51:00,
2013-04-17 21:56:00,75.1,65.1,29.58,East,100,5.0,12.0,71,0.00,,OVC100,0.00,VWS V14.01,2013-04-18 02:56:00,
2013-04-17 22:00:00,75.1,64.7,29.58,South,181,6.0,12.0,70,0.00,,OVC041CB,0.00,VWS V14.01,2013-04-18 03:00:00,
2013-04-17 22:01:00,75.3,64.4,29.58,ENE,71,5.0,8.0,69,0.00,,OVC080,0.00,VWS V14.01,2013-04-18 03:01:00,
2013-04-17 22:06:00,75.1,65.5,29.58,WSW,237,1.0,12.0,72,0.00,,OVC080,0.00,VWS V14.01,2013-04-18 03:06:00,
2013-04-17 22:11:00,74.9,64.5,29.58,SE,124,1.0,12.0,70,0.00,,OVC080,0.00,VWS V14.01,2013-04-18 03:11:00,
2013-04-17 22:17:00,74.7,65.1,29.58,East,90,3.0,12.0,72,0.00,,OVC080,0.00,VWS V14.01,2013-04-18 03:17:00,
2013-04-17 22:22:00,74.9,64.9,29.58,ESE,114,14.0,14.0,71,0.00,,OVC080,0.00,VWS V14.01,2013-04-18 03:22:00,
2013-04-17 22:27:00,75.1,65.1,29.58,SE,130,7.0,14.0,71,0.00,,OVC080,0.00,VWS V14.01,2013-04-18 03:27:00,
2013-04-17 22:32:00,74.7,65.1,29.58,SSE,158,7.0,14.0,72,0.00,,OVC080,0.00,VWS V14.01,2013-04-18 03:32:00,
2013-04-17 22:37:00,74.6,65.0,29.58,East,99,17.0,17.0,72,0.00,,OVC080,0.00,VWS V14.01,2013-04-18 03:37:00,
2013-04-17 22:42:00,74.4,65.6,29.58,ENE,59,0.0,19.0,74,0.00,,OVC080,0.00,VWS V14.01,2013-04-18 03:42:00,
2013-04-17 22:47:00,73.9,65.5,29.59,ENE,73,3.0,19.0,75,0.00,,OVC080,0.00,VWS V14.01,2013-04-18 03:47:00,
2013-04-17 22:52:00,73.3,65.7,29.59,SE,140,1.0,19.0,77,0.00,,OVC080,0.00,VWS V14.01,2013-04-18 03:52:00,
2013-04-17 22:57:00,73.0,65.7,29.59,SSE,161,1.0,19.0,78,0.00,,OVC080,0.00,VWS V14.01,2013-04-18 03:57:00,
2013-04-17 23:01:00,72.7,65.8,29.59,East,90,3.0,6.0,79,0.00,,,0.00,VWS V14.01,2013-04-18 04:01:00,
2013-04-17 23:02:00,72.7,65.8,29.59,East,92,3.0,7.0,79,0.00,,,0.00,VWS V14.01,2013-04-18 04:02:00,
2013-04-17 23:04:00,72.7,65.8,29.59,ENE,71,10.0,10.0,79,0.00,,,0.00,VWS V14.01,2013-04-18 04:04:00,
2013-04-17 23:06:00,72.7,65.8,29.59,SE,133,2.0,12.0,79,0.00,,,0.00,VWS V14.01,2013-04-18 04:06:00,
2013-04-17 23:11:00,72.8,65.6,29.59,ESE,104,5.0,12.0,78,0.00,,,0.00,VWS V14.01,2013-04-18 04:11:00,
2013-04-17 23:17:00,72.8,65.6,29.57,SE,124,5.0,12.0,78,0.00,,,0.00,VWS V14.01,2013-04-18 04:17:00,
2013-04-17 23:22:00,72.8,65.9,29.57,East,88,1.0,12.0,79,0.00,,,0.00,VWS V14.01,2013-04-18 04:22:00,
2013-04-17 23:27:00,72.3,65.8,29.57,ENE,72,6.0,12.0,80,0.00,,,0.00,VWS V14.01,2013-04-18 04:27:00,
2013-04-17 23:32:00,72.0,66.6,29.54,East,86,5.0,12.0,83,0.00,,,0.00,VWS V14.01,2013-04-18 04:32:00,
2013-04-17 23:37:00,71.8,66.0,29.54,West,268,5.0,12.0,82,0.00,,,0.00,VWS V14.01,2013-04-18 04:37:00,
2013-04-17 23:42:00,68.3,62.6,29.54,NW,304,10.0,12.0,82,0.00,,,0.00,VWS V14.01,2013-04-18 04:42:00,
2013-04-17 23:47:00,66.3,63.0,29.57,NW,305,0.0,12.0,89,0.00,,,0.00,VWS V14.01,2013-04-18 04:47:00,
2013-04-17 23:53:00,65.5,63.1,29.57,North,1,1.0,12.0,92,0.00,,,0.00,VWS V14.01,2013-04-18 04:53:00,
2013-04-17 23:58:00,65.3,63.8,29.57,North,359,5.0,12.0,95,0.00,,,0.00,VWS V14.01,2013-04-18 04:58:00,